sensor_id;sensor_type;location;lat;lon;timestamp;temperature;humidity
51466;DHT22;37542;50.164;9.086;2022-07-06T00:03:13;17.70;37.80
51466;DHT22;37542;50.164;9.086;2022-07-06T00:06:54;17.60;38.00
51466;DHT22;37542;50.164;9.086;2022-07-06T00:10:34;17.60;38.30
51466;DHT22;37542;50.164;9.086;2022-07-06T00:14:15;17.60;38.20
51466;DHT22;37542;50.164;9.086;2022-07-06T00:17:56;17.50;38.20
51466;DHT22;37542;50.164;9.086;2022-07-06T00:21:37;17.40;38.30
51466;DHT22;37542;50.164;9.086;2022-07-06T00:25:17;17.40;38.70
51466;DHT22;37542;50.164;9.086;2022-07-06T00:28:58;17.30;38.80
51466;DHT22;37542;50.164;9.086;2022-07-06T00:32:39;17.30;38.90
51466;DHT22;37542;50.164;9.086;2022-07-06T00:36:20;17.20;39.10
51466;DHT22;37542;50.164;9.086;2022-07-06T00:40:01;17.10;39.20
51466;DHT22;37542;50.164;9.086;2022-07-06T00:43:52;17.10;39.30
51466;DHT22;37542;50.164;9.086;2022-07-06T00:47:38;17.00;40.10
51466;DHT22;37542;50.164;9.086;2022-07-06T00:51:20;16.90;39.50
51466;DHT22;37542;50.164;9.086;2022-07-06T00:55:05;16.80;39.60
51466;DHT22;37542;50.164;9.086;2022-07-06T00:58:47;16.80;39.60
51466;DHT22;37542;50.164;9.086;2022-07-06T01:02:31;16.70;39.90
51466;DHT22;37542;50.164;9.086;2022-07-06T01:06:12;16.60;40.30
51466;DHT22;37542;50.164;9.086;2022-07-06T01:09:53;16.60;39.90
51466;DHT22;37542;50.164;9.086;2022-07-06T01:13:34;16.50;40.30
51466;DHT22;37542;50.164;9.086;2022-07-06T01:17:16;16.40;40.40
51466;DHT22;37542;50.164;9.086;2022-07-06T01:21:12;16.40;40.30
51466;DHT22;37542;50.164;9.086;2022-07-06T01:24:54;16.30;41.80
51466;DHT22;37542;50.164;9.086;2022-07-06T01:28:35;16.20;40.00
51466;DHT22;37542;50.164;9.086;2022-07-06T01:32:15;16.20;40.30
51466;DHT22;37542;50.164;9.086;2022-07-06T01:35:56;16.10;40.70
51466;DHT22;37542;50.164;9.086;2022-07-06T01:39:37;16.00;40.90
51466;DHT22;37542;50.164;9.086;2022-07-06T01:43:18;16.00;41.10
51466;DHT22;37542;50.164;9.086;2022-07-06T01:46:59;15.90;41.20
51466;DHT22;37542;50.164;9.086;2022-07-06T01:50:39;15.80;41.20
51466;DHT22;37542;50.164;9.086;2022-07-06T01:54:20;15.80;41.40
51466;DHT22;37542;50.164;9.086;2022-07-06T01:58:01;15.70;41.60
51466;DHT22;37542;50.164;9.086;2022-07-06T02:01:42;15.60;41.70
51466;DHT22;37542;50.164;9.086;2022-07-06T02:05:22;15.50;41.70
51466;DHT22;37542;50.164;9.086;2022-07-06T02:09:03;15.40;41.80
51466;DHT22;37542;50.164;9.086;2022-07-06T02:12:44;15.40;41.90
51466;DHT22;37542;50.164;9.086;2022-07-06T02:16:25;15.30;42.00
51466;DHT22;37542;50.164;9.086;2022-07-06T02:20:06;15.20;42.00
51466;DHT22;37542;50.164;9.086;2022-07-06T02:23:48;15.20;42.50
51466;DHT22;37542;50.164;9.086;2022-07-06T02:27:29;15.10;42.70
51466;DHT22;37542;50.164;9.086;2022-07-06T02:31:09;15.00;42.70
51466;DHT22;37542;50.164;9.086;2022-07-06T02:34:53;15.00;42.90
51466;DHT22;37542;50.164;9.086;2022-07-06T02:38:34;14.90;43.00
51466;DHT22;37542;50.164;9.086;2022-07-06T02:42:14;14.90;43.50
51466;DHT22;37542;50.164;9.086;2022-07-06T02:45:55;14.80;43.50
51466;DHT22;37542;50.164;9.086;2022-07-06T02:49:36;14.70;43.60
51466;DHT22;37542;50.164;9.086;2022-07-06T02:53:18;14.70;43.90
51466;DHT22;37542;50.164;9.086;2022-07-06T02:57:00;14.60;44.30
51466;DHT22;37542;50.164;9.086;2022-07-06T03:00:40;14.50;44.00
51466;DHT22;37542;50.164;9.086;2022-07-06T03:04:21;14.40;44.00
51466;DHT22;37542;50.164;9.086;2022-07-06T03:08:02;14.40;44.30
51466;DHT22;37542;50.164;9.086;2022-07-06T03:11:43;14.30;44.20
51466;DHT22;37542;50.164;9.086;2022-07-06T03:15:23;14.20;45.00
51466;DHT22;37542;50.164;9.086;2022-07-06T03:19:04;14.20;44.70
51466;DHT22;37542;50.164;9.086;2022-07-06T03:22:45;14.10;44.70
51466;DHT22;37542;50.164;9.086;2022-07-06T03:26:26;14.00;45.10
51466;DHT22;37542;50.164;9.086;2022-07-06T03:30:07;14.00;45.00
51466;DHT22;37542;50.164;9.086;2022-07-06T03:33:48;13.90;45.20
51466;DHT22;37542;50.164;9.086;2022-07-06T03:37:29;13.90;45.20
51466;DHT22;37542;50.164;9.086;2022-07-06T03:41:09;13.80;45.50
51466;DHT22;37542;50.164;9.086;2022-07-06T03:44:50;13.80;45.70
51466;DHT22;37542;50.164;9.086;2022-07-06T03:48:31;13.70;45.60
51466;DHT22;37542;50.164;9.086;2022-07-06T03:52:12;13.70;45.70
51466;DHT22;37542;50.164;9.086;2022-07-06T03:55:52;13.70;45.90
51466;DHT22;37542;50.164;9.086;2022-07-06T03:59:52;13.60;45.90
51466;DHT22;37542;50.164;9.086;2022-07-06T04:03:33;13.60;45.90
51466;DHT22;37542;50.164;9.086;2022-07-06T04:07:13;13.50;46.10
51466;DHT22;37542;50.164;9.086;2022-07-06T04:10:54;13.50;46.30
51466;DHT22;37542;50.164;9.086;2022-07-06T04:14:35;13.50;46.40
51466;DHT22;37542;50.164;9.086;2022-07-06T04:18:16;13.50;46.70
51466;DHT22;37542;50.164;9.086;2022-07-06T04:21:56;13.50;46.90
51466;DHT22;37542;50.164;9.086;2022-07-06T04:25:37;13.50;46.90
51466;DHT22;37542;50.164;9.086;2022-07-06T04:29:18;13.50;47.00
51466;DHT22;37542;50.164;9.086;2022-07-06T04:32:59;13.50;47.20
51466;DHT22;37542;50.164;9.086;2022-07-06T04:36:40;13.50;47.40
51466;DHT22;37542;50.164;9.086;2022-07-06T04:40:20;13.50;47.50
51466;DHT22;37542;50.164;9.086;2022-07-06T04:44:01;13.50;47.50
51466;DHT22;37542;50.164;9.086;2022-07-06T04:47:42;13.50;47.80
51466;DHT22;37542;50.164;9.086;2022-07-06T04:51:24;13.40;48.10
51466;DHT22;37542;50.164;9.086;2022-07-06T04:55:05;13.50;48.20
51466;DHT22;37542;50.164;9.086;2022-07-06T04:58:46;13.50;48.30
51466;DHT22;37542;50.164;9.086;2022-07-06T05:02:27;13.50;48.20
51466;DHT22;37542;50.164;9.086;2022-07-06T05:06:08;13.50;48.20
51466;DHT22;37542;50.164;9.086;2022-07-06T05:09:48;13.50;48.40
51466;DHT22;37542;50.164;9.086;2022-07-06T05:13:29;13.60;48.20
51466;DHT22;37542;50.164;9.086;2022-07-06T05:17:10;13.60;48.20
51466;DHT22;37542;50.164;9.086;2022-07-06T05:20:51;13.60;48.30
51466;DHT22;37542;50.164;9.086;2022-07-06T05:24:31;13.70;48.40
51466;DHT22;37542;50.164;9.086;2022-07-06T05:28:12;13.80;48.40
51466;DHT22;37542;50.164;9.086;2022-07-06T05:31:53;13.80;48.40
51466;DHT22;37542;50.164;9.086;2022-07-06T05:35:34;13.80;48.40
51466;DHT22;37542;50.164;9.086;2022-07-06T05:39:14;13.80;48.50
51466;DHT22;37542;50.164;9.086;2022-07-06T05:43:00;13.90;48.40
51466;DHT22;37542;50.164;9.086;2022-07-06T05:46:40;13.90;48.50
51466;DHT22;37542;50.164;9.086;2022-07-06T05:50:21;13.90;48.70
51466;DHT22;37542;50.164;9.086;2022-07-06T05:54:02;14.00;48.60
51466;DHT22;37542;50.164;9.086;2022-07-06T05:57:43;14.10;48.60
51466;DHT22;37542;50.164;9.086;2022-07-06T06:01:24;14.10;48.50
51466;DHT22;37542;50.164;9.086;2022-07-06T06:05:09;14.20;48.50
51466;DHT22;37542;50.164;9.086;2022-07-06T06:08:51;14.30;48.60
51466;DHT22;37542;50.164;9.086;2022-07-06T06:12:32;14.50;48.60
51466;DHT22;37542;50.164;9.086;2022-07-06T06:16:12;14.60;48.30
51466;DHT22;37542;50.164;9.086;2022-07-06T06:19:53;14.70;48.40
51466;DHT22;37542;50.164;9.086;2022-07-06T06:23:34;14.80;48.20
51466;DHT22;37542;50.164;9.086;2022-07-06T06:27:15;14.90;48.00
51466;DHT22;37542;50.164;9.086;2022-07-06T06:30:56;15.00;47.60
51466;DHT22;37542;50.164;9.086;2022-07-06T06:34:37;15.10;47.50
51466;DHT22;37542;50.164;9.086;2022-07-06T06:38:22;15.20;47.40
51466;DHT22;37542;50.164;9.086;2022-07-06T06:42:06;15.20;47.40
51466;DHT22;37542;50.164;9.086;2022-07-06T06:45:47;15.30;47.10
51466;DHT22;37542;50.164;9.086;2022-07-06T06:49:28;15.30;47.30
51466;DHT22;37542;50.164;9.086;2022-07-06T06:53:08;15.40;47.30
51466;DHT22;37542;50.164;9.086;2022-07-06T06:56:49;15.50;47.30
51466;DHT22;37542;50.164;9.086;2022-07-06T07:00:30;15.60;47.30
51466;DHT22;37542;50.164;9.086;2022-07-06T07:04:11;15.70;47.00
51466;DHT22;37542;50.164;9.086;2022-07-06T07:07:52;15.90;47.00
51466;DHT22;37542;50.164;9.086;2022-07-06T07:11:32;16.00;46.80
51466;DHT22;37542;50.164;9.086;2022-07-06T07:15:14;16.20;46.60
51466;DHT22;37542;50.164;9.086;2022-07-06T07:18:56;16.30;46.50
51466;DHT22;37542;50.164;9.086;2022-07-06T07:22:39;16.40;46.30
51466;DHT22;37542;50.164;9.086;2022-07-06T07:26:20;16.50;46.40
51466;DHT22;37542;50.164;9.086;2022-07-06T07:30:01;16.60;46.00
51466;DHT22;37542;50.164;9.086;2022-07-06T07:33:42;16.80;45.60
51466;DHT22;37542;50.164;9.086;2022-07-06T07:37:23;16.90;46.10
51466;DHT22;37542;50.164;9.086;2022-07-06T07:41:03;17.10;45.40
51466;DHT22;37542;50.164;9.086;2022-07-06T07:44:46;17.20;45.00
51466;DHT22;37542;50.164;9.086;2022-07-06T07:48:27;17.40;44.80
51466;DHT22;37542;50.164;9.086;2022-07-06T07:52:08;17.50;44.60
51466;DHT22;37542;50.164;9.086;2022-07-06T07:55:49;17.70;44.50
51466;DHT22;37542;50.164;9.086;2022-07-06T07:59:30;17.80;44.40
51466;DHT22;37542;50.164;9.086;2022-07-06T08:03:11;17.90;44.40
51466;DHT22;37542;50.164;9.086;2022-07-06T08:06:52;18.00;44.10
51466;DHT22;37542;50.164;9.086;2022-07-06T08:10:33;18.00;44.00
51466;DHT22;37542;50.164;9.086;2022-07-06T08:14:14;18.10;44.10
51466;DHT22;37542;50.164;9.086;2022-07-06T08:17:57;18.20;44.10
51466;DHT22;37542;50.164;9.086;2022-07-06T08:21:38;18.30;43.70
51466;DHT22;37542;50.164;9.086;2022-07-06T08:25:18;18.30;43.50
51466;DHT22;37542;50.164;9.086;2022-07-06T08:28:59;18.40;43.10
51466;DHT22;37542;50.164;9.086;2022-07-06T08:32:43;18.40;42.90
51466;DHT22;37542;50.164;9.086;2022-07-06T08:36:24;18.40;43.00
51466;DHT22;37542;50.164;9.086;2022-07-06T08:40:05;18.40;43.10
51466;DHT22;37542;50.164;9.086;2022-07-06T08:43:47;18.50;43.20
51466;DHT22;37542;50.164;9.086;2022-07-06T08:47:28;18.50;43.10
51466;DHT22;37542;50.164;9.086;2022-07-06T08:51:13;18.60;42.90
51466;DHT22;37542;50.164;9.086;2022-07-06T08:54:55;18.60;42.70
51466;DHT22;37542;50.164;9.086;2022-07-06T08:58:36;18.60;42.50
51466;DHT22;37542;50.164;9.086;2022-07-06T09:02:24;18.70;42.50
51466;DHT22;37542;50.164;9.086;2022-07-06T09:06:07;18.80;42.40
51466;DHT22;37542;50.164;9.086;2022-07-06T09:09:49;18.90;42.70
51466;DHT22;37542;50.164;9.086;2022-07-06T09:13:32;19.10;42.80
51466;DHT22;37542;50.164;9.086;2022-07-06T09:17:16;19.40;42.60
51466;DHT22;37542;50.164;9.086;2022-07-06T09:20:56;19.50;42.10
51466;DHT22;37542;50.164;9.086;2022-07-06T09:24:41;19.70;41.50
51466;DHT22;37542;50.164;9.086;2022-07-06T09:28:23;19.80;40.80
51466;DHT22;37542;50.164;9.086;2022-07-06T09:32:29;20.00;41.10
51466;DHT22;37542;50.164;9.086;2022-07-06T09:36:11;20.20;41.10
51466;DHT22;37542;50.164;9.086;2022-07-06T09:39:52;20.40;40.90
51466;DHT22;37542;50.164;9.086;2022-07-06T09:43:33;20.50;40.60
51466;DHT22;37542;50.164;9.086;2022-07-06T09:47:15;20.60;40.30
51466;DHT22;37542;50.164;9.086;2022-07-06T09:51:00;20.70;40.00
51466;DHT22;37542;50.164;9.086;2022-07-06T09:54:48;20.90;40.30
51466;DHT22;37542;50.164;9.086;2022-07-06T09:58:29;21.10;39.50
51466;DHT22;37542;50.164;9.086;2022-07-06T10:02:10;21.20;39.60
51466;DHT22;37542;50.164;9.086;2022-07-06T10:05:54;21.30;39.30
51466;DHT22;37542;50.164;9.086;2022-07-06T10:09:37;21.40;39.20
51466;DHT22;37542;50.164;9.086;2022-07-06T10:13:21;21.50;38.80
51466;DHT22;37542;50.164;9.086;2022-07-06T10:17:05;21.70;38.20
51466;DHT22;37542;50.164;9.086;2022-07-06T10:20:46;21.80;38.50
51466;DHT22;37542;50.164;9.086;2022-07-06T10:24:28;21.90;37.70
51466;DHT22;37542;50.164;9.086;2022-07-06T10:28:10;21.80;37.40
51466;DHT22;37542;50.164;9.086;2022-07-06T10:31:55;21.70;37.20
51466;DHT22;37542;50.164;9.086;2022-07-06T10:35:40;21.70;37.50
51466;DHT22;37542;50.164;9.086;2022-07-06T10:39:38;21.70;37.50
51466;DHT22;37542;50.164;9.086;2022-07-06T10:43:41;21.80;36.60
51466;DHT22;37542;50.164;9.086;2022-07-06T10:47:27;21.90;36.70
51466;DHT22;37542;50.164;9.086;2022-07-06T10:51:11;21.90;36.30
51466;DHT22;37542;50.164;9.086;2022-07-06T10:54:56;21.90;36.70
51466;DHT22;37542;50.164;9.086;2022-07-06T10:58:49;22.00;36.20
51466;DHT22;37542;50.164;9.086;2022-07-06T11:02:38;22.30;37.00
51466;DHT22;37542;50.164;9.086;2022-07-06T11:06:20;22.60;36.30
51466;DHT22;37542;50.164;9.086;2022-07-06T11:10:02;22.90;36.80
51466;DHT22;37542;50.164;9.086;2022-07-06T11:13:47;23.20;35.60
51466;DHT22;37542;50.164;9.086;2022-07-06T11:17:33;23.20;35.30
51466;DHT22;37542;50.164;9.086;2022-07-06T11:21:20;23.20;35.90
51466;DHT22;37542;50.164;9.086;2022-07-06T11:25:03;23.30;35.60
51466;DHT22;37542;50.164;9.086;2022-07-06T11:28:47;23.40;35.20
51466;DHT22;37542;50.164;9.086;2022-07-06T11:32:28;23.60;35.30
51466;DHT22;37542;50.164;9.086;2022-07-06T11:36:16;23.70;35.40
51466;DHT22;37542;50.164;9.086;2022-07-06T11:40:06;24.00;34.10
51466;DHT22;37542;50.164;9.086;2022-07-06T11:43:48;24.20;33.80
51466;DHT22;37542;50.164;9.086;2022-07-06T11:47:34;24.50;34.40
51466;DHT22;37542;50.164;9.086;2022-07-06T11:51:15;24.70;34.30
51466;DHT22;37542;50.164;9.086;2022-07-06T11:54:59;24.80;34.10
51466;DHT22;37542;50.164;9.086;2022-07-06T11:58:41;25.00;33.00
51466;DHT22;37542;50.164;9.086;2022-07-06T12:02:24;25.10;33.40
51466;DHT22;37542;50.164;9.086;2022-07-06T12:06:10;25.30;32.80
51466;DHT22;37542;50.164;9.086;2022-07-06T12:10:01;25.40;32.90
51466;DHT22;37542;50.164;9.086;2022-07-06T12:13:42;25.50;32.90
51466;DHT22;37542;50.164;9.086;2022-07-06T12:17:25;25.40;32.30
51466;DHT22;37542;50.164;9.086;2022-07-06T12:21:12;25.40;31.80
51466;DHT22;37542;50.164;9.086;2022-07-06T12:24:54;25.30;31.00
51466;DHT22;37542;50.164;9.086;2022-07-06T12:28:37;25.30;32.00
51466;DHT22;37542;50.164;9.086;2022-07-06T12:32:20;25.40;32.60
51466;DHT22;37542;50.164;9.086;2022-07-06T12:36:13;25.60;32.20
51466;DHT22;37542;50.164;9.086;2022-07-06T12:39:55;25.80;30.70
51466;DHT22;37542;50.164;9.086;2022-07-06T12:43:40;25.90;31.60
51466;DHT22;37542;50.164;9.086;2022-07-06T12:47:23;25.90;31.10
51466;DHT22;37542;50.164;9.086;2022-07-06T12:51:05;25.80;30.80
51466;DHT22;37542;50.164;9.086;2022-07-06T12:54:49;25.70;30.70
51466;DHT22;37542;50.164;9.086;2022-07-06T12:58:30;25.70;30.30
51466;DHT22;37542;50.164;9.086;2022-07-06T13:02:22;25.50;30.70
51466;DHT22;37542;50.164;9.086;2022-07-06T13:06:03;25.40;29.20
51466;DHT22;37542;50.164;9.086;2022-07-06T13:09:45;25.30;30.20
51466;DHT22;37542;50.164;9.086;2022-07-06T13:13:26;25.20;30.00
51466;DHT22;37542;50.164;9.086;2022-07-06T13:17:07;25.10;29.80
51466;DHT22;37542;50.164;9.086;2022-07-06T13:20:48;24.90;29.80
51466;DHT22;37542;50.164;9.086;2022-07-06T13:24:32;24.90;30.30
51466;DHT22;37542;50.164;9.086;2022-07-06T13:28:13;25.00;30.30
51466;DHT22;37542;50.164;9.086;2022-07-06T13:31:53;25.10;30.70
51466;DHT22;37542;50.164;9.086;2022-07-06T13:35:37;25.20;31.20
51466;DHT22;37542;50.164;9.086;2022-07-06T13:39:18;25.30;30.20
51466;DHT22;37542;50.164;9.086;2022-07-06T13:43:01;25.40;30.00
51466;DHT22;37542;50.164;9.086;2022-07-06T13:46:43;25.40;29.80
51466;DHT22;37542;50.164;9.086;2022-07-06T13:50:23;25.40;29.90
51466;DHT22;37542;50.164;9.086;2022-07-06T13:54:06;25.40;29.80
51466;DHT22;37542;50.164;9.086;2022-07-06T13:57:47;25.30;29.70
51466;DHT22;37542;50.164;9.086;2022-07-06T14:01:28;25.30;29.80
51466;DHT22;37542;50.164;9.086;2022-07-06T14:05:09;25.40;29.60
51466;DHT22;37542;50.164;9.086;2022-07-06T14:08:50;25.30;29.30
51466;DHT22;37542;50.164;9.086;2022-07-06T14:12:31;25.30;29.50
51466;DHT22;37542;50.164;9.086;2022-07-06T14:16:12;25.30;29.30
51466;DHT22;37542;50.164;9.086;2022-07-06T14:19:53;25.30;29.90
51466;DHT22;37542;50.164;9.086;2022-07-06T14:23:34;25.30;29.40
51466;DHT22;37542;50.164;9.086;2022-07-06T14:27:15;25.30;29.50
51466;DHT22;37542;50.164;9.086;2022-07-06T14:30:55;25.20;29.10
51466;DHT22;37542;50.164;9.086;2022-07-06T14:34:36;25.10;28.90
51466;DHT22;37542;50.164;9.086;2022-07-06T14:38:18;24.90;29.00
51466;DHT22;37542;50.164;9.086;2022-07-06T14:41:59;24.70;29.20
51466;DHT22;37542;50.164;9.086;2022-07-06T14:45:40;24.70;29.40
51466;DHT22;37542;50.164;9.086;2022-07-06T14:49:25;24.50;29.10
51466;DHT22;37542;50.164;9.086;2022-07-06T14:53:06;24.30;29.00
51466;DHT22;37542;50.164;9.086;2022-07-06T14:56:47;24.20;29.40
51466;DHT22;37542;50.164;9.086;2022-07-06T15:00:28;24.10;29.60
51466;DHT22;37542;50.164;9.086;2022-07-06T15:04:09;24.00;29.70
51466;DHT22;37542;50.164;9.086;2022-07-06T15:07:50;23.80;29.40
51466;DHT22;37542;50.164;9.086;2022-07-06T15:11:31;23.70;29.70
51466;DHT22;37542;50.164;9.086;2022-07-06T15:15:12;23.70;29.80
51466;DHT22;37542;50.164;9.086;2022-07-06T15:18:53;23.70;30.00
51466;DHT22;37542;50.164;9.086;2022-07-06T15:22:34;23.70;29.80
51466;DHT22;37542;50.164;9.086;2022-07-06T15:26:16;23.70;29.90
51466;DHT22;37542;50.164;9.086;2022-07-06T15:29:57;23.70;30.00
51466;DHT22;37542;50.164;9.086;2022-07-06T15:33:38;23.70;29.90
51466;DHT22;37542;50.164;9.086;2022-07-06T15:37:19;23.60;30.00
51466;DHT22;37542;50.164;9.086;2022-07-06T15:41:00;23.50;29.80
51466;DHT22;37542;50.164;9.086;2022-07-06T15:44:43;23.40;30.00
51466;DHT22;37542;50.164;9.086;2022-07-06T15:48:24;23.30;30.00
51466;DHT22;37542;50.164;9.086;2022-07-06T15:52:05;23.20;30.10
51466;DHT22;37542;50.164;9.086;2022-07-06T15:55:46;23.00;29.90
51466;DHT22;37542;50.164;9.086;2022-07-06T15:59:27;22.90;29.80
51466;DHT22;37542;50.164;9.086;2022-07-06T16:03:11;22.80;30.00
51466;DHT22;37542;50.164;9.086;2022-07-06T16:06:54;22.60;30.00
51466;DHT22;37542;50.164;9.086;2022-07-06T16:10:35;22.50;30.00
51466;DHT22;37542;50.164;9.086;2022-07-06T16:14:16;22.40;30.00
51466;DHT22;37542;50.164;9.086;2022-07-06T16:17:57;22.30;30.10
51466;DHT22;37542;50.164;9.086;2022-07-06T16:21:39;22.10;30.30
51466;DHT22;37542;50.164;9.086;2022-07-06T16:25:19;22.00;30.30
51466;DHT22;37542;50.164;9.086;2022-07-06T16:29:05;22.00;30.30
51466;DHT22;37542;50.164;9.086;2022-07-06T16:32:46;21.90;30.60
51466;DHT22;37542;50.164;9.086;2022-07-06T16:36:26;21.90;30.60
51466;DHT22;37542;50.164;9.086;2022-07-06T16:40:08;21.90;30.70
51466;DHT22;37542;50.164;9.086;2022-07-06T16:43:52;21.80;30.60
51466;DHT22;37542;50.164;9.086;2022-07-06T16:47:33;21.70;30.60
51466;DHT22;37542;50.164;9.086;2022-07-06T16:51:14;21.60;30.70
51466;DHT22;37542;50.164;9.086;2022-07-06T16:54:55;21.60;30.90
51466;DHT22;37542;50.164;9.086;2022-07-06T16:58:36;21.60;30.80
51466;DHT22;37542;50.164;9.086;2022-07-06T17:02:17;21.50;30.80
51466;DHT22;37542;50.164;9.086;2022-07-06T17:05:59;21.50;31.00
51466;DHT22;37542;50.164;9.086;2022-07-06T17:09:39;21.40;30.90
51466;DHT22;37542;50.164;9.086;2022-07-06T17:13:20;21.40;31.00
51466;DHT22;37542;50.164;9.086;2022-07-06T17:17:01;21.30;31.20
51466;DHT22;37542;50.164;9.086;2022-07-06T17:20:42;21.30;31.30
51466;DHT22;37542;50.164;9.086;2022-07-06T17:24:23;21.30;31.10
51466;DHT22;37542;50.164;9.086;2022-07-06T17:28:04;21.20;31.00
51466;DHT22;37542;50.164;9.086;2022-07-06T17:31:45;21.10;31.00
51466;DHT22;37542;50.164;9.086;2022-07-06T17:35:26;21.00;31.70
51466;DHT22;37542;50.164;9.086;2022-07-06T17:39:07;21.00;31.30
51466;DHT22;37542;50.164;9.086;2022-07-06T17:42:48;20.90;31.20
51466;DHT22;37542;50.164;9.086;2022-07-06T17:46:29;20.90;31.40
51466;DHT22;37542;50.164;9.086;2022-07-06T17:50:10;20.80;31.50
51466;DHT22;37542;50.164;9.086;2022-07-06T17:53:51;20.80;31.50
51466;DHT22;37542;50.164;9.086;2022-07-06T17:57:32;20.70;31.60
51466;DHT22;37542;50.164;9.086;2022-07-06T18:01:13;20.70;31.70
51466;DHT22;37542;50.164;9.086;2022-07-06T18:04:54;20.60;31.60
51466;DHT22;37542;50.164;9.086;2022-07-06T18:08:35;20.60;31.70
51466;DHT22;37542;50.164;9.086;2022-07-06T18:12:16;20.50;31.70
51466;DHT22;37542;50.164;9.086;2022-07-06T18:15:57;20.40;31.70
51466;DHT22;37542;50.164;9.086;2022-07-06T18:19:38;20.30;31.80
51466;DHT22;37542;50.164;9.086;2022-07-06T18:23:19;20.20;31.80
51466;DHT22;37542;50.164;9.086;2022-07-06T18:27:01;20.10;32.00
51466;DHT22;37542;50.164;9.086;2022-07-06T18:30:46;20.00;32.20
51466;DHT22;37542;50.164;9.086;2022-07-06T18:34:28;19.90;32.50
51466;DHT22;37542;50.164;9.086;2022-07-06T18:38:09;19.80;32.40
51466;DHT22;37542;50.164;9.086;2022-07-06T18:41:51;19.70;32.40
51466;DHT22;37542;50.164;9.086;2022-07-06T18:45:32;19.70;32.70
51466;DHT22;37542;50.164;9.086;2022-07-06T18:49:13;19.60;32.70
51466;DHT22;37542;50.164;9.086;2022-07-06T18:52:54;19.50;32.90
51466;DHT22;37542;50.164;9.086;2022-07-06T18:56:35;19.40;32.90
51466;DHT22;37542;50.164;9.086;2022-07-06T19:00:16;19.30;33.10
51466;DHT22;37542;50.164;9.086;2022-07-06T19:03:57;19.20;33.20
51466;DHT22;37542;50.164;9.086;2022-07-06T19:07:37;19.10;33.30
51466;DHT22;37542;50.164;9.086;2022-07-06T19:11:18;18.90;33.40
51466;DHT22;37542;50.164;9.086;2022-07-06T19:14:59;18.80;33.50
51466;DHT22;37542;50.164;9.086;2022-07-06T19:18:40;18.80;33.60
51466;DHT22;37542;50.164;9.086;2022-07-06T19:22:21;18.70;33.70
51466;DHT22;37542;50.164;9.086;2022-07-06T19:26:05;18.60;33.90
51466;DHT22;37542;50.164;9.086;2022-07-06T19:29:46;18.60;34.50
51466;DHT22;37542;50.164;9.086;2022-07-06T19:33:27;18.50;34.50
51466;DHT22;37542;50.164;9.086;2022-07-06T19:37:08;18.40;34.70
51466;DHT22;37542;50.164;9.086;2022-07-06T19:40:49;18.40;35.10
51466;DHT22;37542;50.164;9.086;2022-07-06T19:44:30;18.40;35.10
51466;DHT22;37542;50.164;9.086;2022-07-06T19:48:10;18.20;35.10
51466;DHT22;37542;50.164;9.086;2022-07-06T19:51:51;18.20;35.40
51466;DHT22;37542;50.164;9.086;2022-07-06T19:55:32;18.20;36.20
51466;DHT22;37542;50.164;9.086;2022-07-06T19:59:13;18.00;35.60
51466;DHT22;37542;50.164;9.086;2022-07-06T20:02:54;18.00;35.70
51466;DHT22;37542;50.164;9.086;2022-07-06T20:06:34;17.90;36.50
51466;DHT22;37542;50.164;9.086;2022-07-06T20:10:17;17.80;36.00
51466;DHT22;37542;50.164;9.086;2022-07-06T20:13:58;17.70;36.20
51466;DHT22;37542;50.164;9.086;2022-07-06T20:17:40;17.60;36.40
51466;DHT22;37542;50.164;9.086;2022-07-06T20:21:21;17.40;36.50
51466;DHT22;37542;50.164;9.086;2022-07-06T20:25:03;17.40;36.80
51466;DHT22;37542;50.164;9.086;2022-07-06T20:28:43;17.30;36.90
51466;DHT22;37542;50.164;9.086;2022-07-06T20:32:24;17.20;37.10
51466;DHT22;37542;50.164;9.086;2022-07-06T20:36:07;17.00;37.00
51466;DHT22;37542;50.164;9.086;2022-07-06T20:39:49;16.90;37.60
51466;DHT22;37542;50.164;9.086;2022-07-06T20:43:31;16.80;37.40
51466;DHT22;37542;50.164;9.086;2022-07-06T20:47:12;16.70;37.50
51466;DHT22;37542;50.164;9.086;2022-07-06T20:50:53;16.70;37.80
51466;DHT22;37542;50.164;9.086;2022-07-06T20:54:34;16.50;37.90
51466;DHT22;37542;50.164;9.086;2022-07-06T20:58:15;16.50;38.10
51466;DHT22;37542;50.164;9.086;2022-07-06T21:01:56;16.40;38.30
51466;DHT22;37542;50.164;9.086;2022-07-06T21:05:37;16.40;38.50
51466;DHT22;37542;50.164;9.086;2022-07-06T21:09:17;16.30;38.50
51466;DHT22;37542;50.164;9.086;2022-07-06T21:12:58;16.30;38.60
51466;DHT22;37542;50.164;9.086;2022-07-06T21:16:40;16.20;38.60
51466;DHT22;37542;50.164;9.086;2022-07-06T21:20:21;16.20;38.80
51466;DHT22;37542;50.164;9.086;2022-07-06T21:24:02;16.20;39.10
51466;DHT22;37542;50.164;9.086;2022-07-06T21:27:43;16.10;39.10
51466;DHT22;37542;50.164;9.086;2022-07-06T21:31:24;16.10;39.20
51466;DHT22;37542;50.164;9.086;2022-07-06T21:35:05;16.00;39.40
51466;DHT22;37542;50.164;9.086;2022-07-06T21:38:46;16.00;39.50
51466;DHT22;37542;50.164;9.086;2022-07-06T21:42:27;15.90;39.70
51466;DHT22;37542;50.164;9.086;2022-07-06T21:46:08;15.90;39.90
51466;DHT22;37542;50.164;9.086;2022-07-06T21:49:48;15.90;40.20
51466;DHT22;37542;50.164;9.086;2022-07-06T21:53:29;15.90;40.80
51466;DHT22;37542;50.164;9.086;2022-07-06T21:57:10;15.80;39.90
51466;DHT22;37542;50.164;9.086;2022-07-06T22:00:50;15.80;40.40
51466;DHT22;37542;50.164;9.086;2022-07-06T22:04:32;15.80;40.20
51466;DHT22;37542;50.164;9.086;2022-07-06T22:08:14;15.70;40.50
51466;DHT22;37542;50.164;9.086;2022-07-06T22:11:56;15.70;40.50
51466;DHT22;37542;50.164;9.086;2022-07-06T22:15:40;15.70;40.80
51466;DHT22;37542;50.164;9.086;2022-07-06T22:19:20;15.70;41.00
51466;DHT22;37542;50.164;9.086;2022-07-06T22:23:01;15.70;40.80
51466;DHT22;37542;50.164;9.086;2022-07-06T22:26:43;15.70;41.10
51466;DHT22;37542;50.164;9.086;2022-07-06T22:30:25;15.70;41.30
51466;DHT22;37542;50.164;9.086;2022-07-06T22:34:06;15.70;41.60
51466;DHT22;37542;50.164;9.086;2022-07-06T22:37:47;15.60;41.70
51466;DHT22;37542;50.164;9.086;2022-07-06T22:41:28;15.60;41.60
51466;DHT22;37542;50.164;9.086;2022-07-06T22:45:10;15.60;41.80
51466;DHT22;37542;50.164;9.086;2022-07-06T22:48:51;15.60;41.90
51466;DHT22;37542;50.164;9.086;2022-07-06T22:52:32;15.60;41.70
51466;DHT22;37542;50.164;9.086;2022-07-06T22:56:13;15.60;42.10
51466;DHT22;37542;50.164;9.086;2022-07-06T22:59:54;15.60;41.90
51466;DHT22;37542;50.164;9.086;2022-07-06T23:03:35;15.60;41.90
51466;DHT22;37542;50.164;9.086;2022-07-06T23:07:15;15.50;42.10
51466;DHT22;37542;50.164;9.086;2022-07-06T23:10:56;15.50;42.10
51466;DHT22;37542;50.164;9.086;2022-07-06T23:14:37;15.50;42.40
51466;DHT22;37542;50.164;9.086;2022-07-06T23:18:19;15.50;42.10
51466;DHT22;37542;50.164;9.086;2022-07-06T23:22:00;15.50;42.10